sensor_id;sensor_type;location;lat;lon;timestamp;P1;durP1;ratioP1;P2;durP2;ratioP2
6939;SDS011;3509;48.510;9.076;2022-09-09T00:00:59;10.95;;;3.20;;
6939;SDS011;3509;48.510;9.076;2022-09-09T00:03:44;7.65;;;3.10;;
6939;SDS011;3509;48.510;9.076;2022-09-09T00:06:23;8.10;;;3.20;;
6939;SDS011;3509;48.510;9.076;2022-09-09T00:09:05;8.63;;;3.10;;
6939;SDS011;3509;48.510;9.076;2022-09-09T00:11:36;9.18;;;3.13;;
6939;SDS011;3509;48.510;9.076;2022-09-09T00:14:09;3.97;;;3.10;;
6939;SDS011;3509;48.510;9.076;2022-09-09T00:16:49;9.95;;;3.30;;
6939;SDS011;3509;48.510;9.076;2022-09-09T00:19:22;7.97;;;2.83;;
6939;SDS011;3509;48.510;9.076;2022-09-09T00:22:18;6.95;;;3.17;;
6939;SDS011;3509;48.510;9.076;2022-09-09T00:24:49;5.35;;;2.92;;
6939;SDS011;3509;48.510;9.076;2022-09-09T00:32:39;8.10;;;3.47;;
6939;SDS011;3509;48.510;9.076;2022-09-09T00:37:41;9.40;;;3.05;;
6939;SDS011;3509;48.510;9.076;2022-09-09T00:40:18;7.43;;;3.30;;
6939;SDS011;3509;48.510;9.076;2022-09-09T00:45:42;10.25;;;3.15;;
6939;SDS011;3509;48.510;9.076;2022-09-09T00:48:41;5.95;;;3.33;;
6939;SDS011;3509;48.510;9.076;2022-09-09T00:51:41;8.20;;;2.90;;
6939;SDS011;3509;48.510;9.076;2022-09-09T01:08:08;7.38;;;3.33;;
6939;SDS011;3509;48.510;9.076;2022-09-09T01:13:15;10.82;;;3.33;;
6939;SDS011;3509;48.510;9.076;2022-09-09T01:15:48;7.47;;;3.33;;
6939;SDS011;3509;48.510;9.076;2022-09-09T01:18:16;6.97;;;3.13;;
6939;SDS011;3509;48.510;9.076;2022-09-09T01:28:45;9.55;;;3.70;;
6939;SDS011;3509;48.510;9.076;2022-09-09T01:31:18;7.97;;;3.55;;
6939;SDS011;3509;48.510;9.076;2022-09-09T01:33:47;7.32;;;3.20;;
6939;SDS011;3509;48.510;9.076;2022-09-09T01:36:16;12.85;;;3.38;;
6939;SDS011;3509;48.510;9.076;2022-09-09T01:38:47;7.80;;;3.65;;
6939;SDS011;3509;48.510;9.076;2022-09-09T01:41:13;8.20;;;3.78;;
6939;SDS011;3509;48.510;9.076;2022-09-09T01:43:39;8.63;;;3.80;;
6939;SDS011;3509;48.510;9.076;2022-09-09T01:46:04;8.82;;;3.83;;
6939;SDS011;3509;48.510;9.076;2022-09-09T01:48:30;12.82;;;3.58;;
6939;SDS011;3509;48.510;9.076;2022-09-09T01:50:56;9.70;;;3.67;;
6939;SDS011;3509;48.510;9.076;2022-09-09T01:53:22;11.02;;;3.25;;
6939;SDS011;3509;48.510;9.076;2022-09-09T02:01:15;13.30;;;4.53;;
6939;SDS011;3509;48.510;9.076;2022-09-09T02:03:52;6.63;;;3.58;;
6939;SDS011;3509;48.510;9.076;2022-09-09T02:08:59;7.75;;;4.00;;
6939;SDS011;3509;48.510;9.076;2022-09-09T02:11:28;9.60;;;4.03;;
6939;SDS011;3509;48.510;9.076;2022-09-09T02:13:56;8.48;;;4.00;;
6939;SDS011;3509;48.510;9.076;2022-09-09T02:16:32;9.75;;;4.30;;
6939;SDS011;3509;48.510;9.076;2022-09-09T02:19:23;8.30;;;3.70;;
6939;SDS011;3509;48.510;9.076;2022-09-09T02:22:23;10.05;;;3.67;;
6939;SDS011;3509;48.510;9.076;2022-09-09T02:24:51;7.25;;;3.88;;
6939;SDS011;3509;48.510;9.076;2022-09-09T02:27:21;5.85;;;3.78;;
6939;SDS011;3509;48.510;9.076;2022-09-09T02:29:48;11.63;;;4.05;;
6939;SDS011;3509;48.510;9.076;2022-09-09T02:32:17;25.50;;;4.75;;
6939;SDS011;3509;48.510;9.076;2022-09-09T02:34:50;6.85;;;4.03;;
6939;SDS011;3509;48.510;9.076;2022-09-09T02:37:21;11.85;;;4.20;;
6939;SDS011;3509;48.510;9.076;2022-09-09T02:39:53;5.88;;;4.05;;
6939;SDS011;3509;48.510;9.076;2022-09-09T02:42:19;6.65;;;3.83;;
6939;SDS011;3509;48.510;9.076;2022-09-09T02:44:45;10.85;;;3.75;;
6939;SDS011;3509;48.510;9.076;2022-09-09T02:47:33;8.07;;;4.10;;
6939;SDS011;3509;48.510;9.076;2022-09-09T02:50:15;9.43;;;3.95;;
6939;SDS011;3509;48.510;9.076;2022-09-09T02:52:51;10.38;;;3.80;;
6939;SDS011;3509;48.510;9.076;2022-09-09T02:58:11;7.45;;;3.92;;
6939;SDS011;3509;48.510;9.076;2022-09-09T03:00:42;9.88;;;3.83;;
6939;SDS011;3509;48.510;9.076;2022-09-09T03:03:08;6.18;;;3.60;;
6939;SDS011;3509;48.510;9.076;2022-09-09T03:05:34;8.18;;;3.42;;
6939;SDS011;3509;48.510;9.076;2022-09-09T03:08:00;8.90;;;3.42;;
6939;SDS011;3509;48.510;9.076;2022-09-09T03:10:27;8.50;;;3.35;;
6939;SDS011;3509;48.510;9.076;2022-09-09T03:12:52;8.77;;;3.33;;
6939;SDS011;3509;48.510;9.076;2022-09-09T03:15:18;11.52;;;3.47;;
6939;SDS011;3509;48.510;9.076;2022-09-09T03:17:45;6.80;;;3.15;;
6939;SDS011;3509;48.510;9.076;2022-09-09T03:20:12;6.55;;;3.20;;
6939;SDS011;3509;48.510;9.076;2022-09-09T03:22:37;7.03;;;3.10;;
6939;SDS011;3509;48.510;9.076;2022-09-09T03:25:03;5.95;;;3.70;;
6939;SDS011;3509;48.510;9.076;2022-09-09T03:27:30;9.60;;;3.65;;
6939;SDS011;3509;48.510;9.076;2022-09-09T03:29:56;7.35;;;3.75;;
6939;SDS011;3509;48.510;9.076;2022-09-09T03:32:22;7.20;;;3.40;;
6939;SDS011;3509;48.510;9.076;2022-09-09T03:34:51;7.13;;;3.20;;
6939;SDS011;3509;48.510;9.076;2022-09-09T03:37:17;10.18;;;3.40;;
6939;SDS011;3509;48.510;9.076;2022-09-09T03:39:43;6.68;;;3.40;;
6939;SDS011;3509;48.510;9.076;2022-09-09T03:42:11;7.20;;;2.97;;
6939;SDS011;3509;48.510;9.076;2022-09-09T03:44:39;9.35;;;3.60;;
6939;SDS011;3509;48.510;9.076;2022-09-09T03:47:06;10.68;;;3.60;;
6939;SDS011;3509;48.510;9.076;2022-09-09T03:49:31;6.53;;;3.08;;
6939;SDS011;3509;48.510;9.076;2022-09-09T03:51:57;7.10;;;3.35;;
6939;SDS011;3509;48.510;9.076;2022-09-09T03:54:24;6.68;;;3.55;;
6939;SDS011;3509;48.510;9.076;2022-09-09T03:56:50;8.45;;;3.58;;
6939;SDS011;3509;48.510;9.076;2022-09-09T03:59:16;4.45;;;3.10;;
6939;SDS011;3509;48.510;9.076;2022-09-09T04:01:41;6.00;;;3.25;;
6939;SDS011;3509;48.510;9.076;2022-09-09T04:04:07;6.60;;;3.35;;
6939;SDS011;3509;48.510;9.076;2022-09-09T04:06:34;6.07;;;3.05;;
6939;SDS011;3509;48.510;9.076;2022-09-09T04:09:00;7.80;;;3.22;;
6939;SDS011;3509;48.510;9.076;2022-09-09T04:11:28;8.07;;;3.60;;
6939;SDS011;3509;48.510;9.076;2022-09-09T04:13:54;8.85;;;3.17;;
6939;SDS011;3509;48.510;9.076;2022-09-09T04:16:19;16.70;;;3.28;;
6939;SDS011;3509;48.510;9.076;2022-09-09T04:18:45;6.45;;;3.45;;
6939;SDS011;3509;48.510;9.076;2022-09-09T04:21:11;7.20;;;3.67;;
6939;SDS011;3509;48.510;9.076;2022-09-09T04:23:37;7.43;;;3.33;;
6939;SDS011;3509;48.510;9.076;2022-09-09T04:26:04;6.63;;;3.47;;
6939;SDS011;3509;48.510;9.076;2022-09-09T04:28:31;8.27;;;3.45;;
6939;SDS011;3509;48.510;9.076;2022-09-09T04:31:03;6.88;;;3.50;;
6939;SDS011;3509;48.510;9.076;2022-09-09T04:33:34;7.30;;;3.65;;
6939;SDS011;3509;48.510;9.076;2022-09-09T04:36:00;8.68;;;3.50;;
6939;SDS011;3509;48.510;9.076;2022-09-09T04:38:26;6.18;;;3.60;;
6939;SDS011;3509;48.510;9.076;2022-09-09T04:40:51;10.63;;;3.67;;
6939;SDS011;3509;48.510;9.076;2022-09-09T04:43:18;10.55;;;3.45;;
6939;SDS011;3509;48.510;9.076;2022-09-09T04:45:49;11.05;;;3.72;;
6939;SDS011;3509;48.510;9.076;2022-09-09T04:48:19;7.22;;;3.35;;
6939;SDS011;3509;48.510;9.076;2022-09-09T04:53:24;10.30;;;3.40;;
6939;SDS011;3509;48.510;9.076;2022-09-09T04:55:51;7.90;;;3.42;;
6939;SDS011;3509;48.510;9.076;2022-09-09T04:58:17;7.43;;;3.28;;
6939;SDS011;3509;48.510;9.076;2022-09-09T05:00:43;7.82;;;3.85;;
6939;SDS011;3509;48.510;9.076;2022-09-09T05:03:09;10.43;;;3.97;;
6939;SDS011;3509;48.510;9.076;2022-09-09T05:05:34;8.63;;;3.85;;
6939;SDS011;3509;48.510;9.076;2022-09-09T05:08:01;7.03;;;3.25;;
6939;SDS011;3509;48.510;9.076;2022-09-09T05:10:31;14.63;;;4.22;;
6939;SDS011;3509;48.510;9.076;2022-09-09T05:12:58;8.98;;;3.80;;
6939;SDS011;3509;48.510;9.076;2022-09-09T05:15:23;7.82;;;3.60;;
6939;SDS011;3509;48.510;9.076;2022-09-09T05:17:49;7.68;;;3.90;;
6939;SDS011;3509;48.510;9.076;2022-09-09T05:20:17;6.35;;;3.63;;
6939;SDS011;3509;48.510;9.076;2022-09-09T05:22:43;7.63;;;3.10;;
6939;SDS011;3509;48.510;9.076;2022-09-09T05:25:09;9.57;;;3.30;;
6939;SDS011;3509;48.510;9.076;2022-09-09T05:27:34;6.82;;;3.45;;
6939;SDS011;3509;48.510;9.076;2022-09-09T05:30:00;6.50;;;3.28;;
6939;SDS011;3509;48.510;9.076;2022-09-09T05:32:26;8.82;;;3.60;;
6939;SDS011;3509;48.510;9.076;2022-09-09T05:34:52;10.75;;;3.40;;
6939;SDS011;3509;48.510;9.076;2022-09-09T05:37:18;3.42;;;2.80;;
6939;SDS011;3509;48.510;9.076;2022-09-09T05:39:44;6.38;;;3.08;;
6939;SDS011;3509;48.510;9.076;2022-09-09T05:42:10;9.02;;;3.30;;
6939;SDS011;3509;48.510;9.076;2022-09-09T05:44:35;6.63;;;3.30;;
6939;SDS011;3509;48.510;9.076;2022-09-09T05:47:02;9.02;;;3.33;;
6939;SDS011;3509;48.510;9.076;2022-09-09T05:49:27;9.43;;;3.20;;
6939;SDS011;3509;48.510;9.076;2022-09-09T05:51:53;7.78;;;3.53;;
6939;SDS011;3509;48.510;9.076;2022-09-09T05:54:19;5.47;;;3.28;;
6939;SDS011;3509;48.510;9.076;2022-09-09T05:56:45;8.43;;;3.45;;
6939;SDS011;3509;48.510;9.076;2022-09-09T05:59:13;4.88;;;2.78;;
6939;SDS011;3509;48.510;9.076;2022-09-09T06:01:39;19.27;;;3.42;;
6939;SDS011;3509;48.510;9.076;2022-09-09T06:04:05;13.30;;;3.95;;
6939;SDS011;3509;48.510;9.076;2022-09-09T06:06:35;9.30;;;4.32;;
6939;SDS011;3509;48.510;9.076;2022-09-09T06:09:04;6.35;;;4.22;;
6939;SDS011;3509;48.510;9.076;2022-09-09T06:11:32;5.60;;;4.85;;
6939;SDS011;3509;48.510;9.076;2022-09-09T06:13:58;13.98;;;4.78;;
6939;SDS011;3509;48.510;9.076;2022-09-09T06:16:25;7.45;;;3.95;;
6939;SDS011;3509;48.510;9.076;2022-09-09T06:18:52;6.35;;;4.20;;
6939;SDS011;3509;48.510;9.076;2022-09-09T06:21:23;7.47;;;3.45;;
6939;SDS011;3509;48.510;9.076;2022-09-09T06:23:51;8.18;;;3.10;;
6939;SDS011;3509;48.510;9.076;2022-09-09T06:26:19;6.43;;;3.08;;
6939;SDS011;3509;48.510;9.076;2022-09-09T06:28:50;8.32;;;3.22;;
6939;SDS011;3509;48.510;9.076;2022-09-09T06:31:18;6.72;;;2.97;;
6939;SDS011;3509;48.510;9.076;2022-09-09T06:33:49;7.05;;;2.40;;
6939;SDS011;3509;48.510;9.076;2022-09-09T06:38:43;10.02;;;2.95;;
6939;SDS011;3509;48.510;9.076;2022-09-09T06:41:10;8.65;;;2.50;;
6939;SDS011;3509;48.510;9.076;2022-09-09T06:43:37;5.43;;;2.17;;
6939;SDS011;3509;48.510;9.076;2022-09-09T06:48:30;8.95;;;3.10;;
6939;SDS011;3509;48.510;9.076;2022-09-09T06:53:37;5.38;;;2.45;;
6939;SDS011;3509;48.510;9.076;2022-09-09T06:58:36;7.45;;;2.30;;
6939;SDS011;3509;48.510;9.076;2022-09-09T07:01:08;8.60;;;2.28;;
6939;SDS011;3509;48.510;9.076;2022-09-09T07:03:34;6.90;;;3.08;;
6939;SDS011;3509;48.510;9.076;2022-09-09T07:06:01;6.43;;;2.92;;
6939;SDS011;3509;48.510;9.076;2022-09-09T07:08:27;7.55;;;2.70;;
6939;SDS011;3509;48.510;9.076;2022-09-09T07:10:53;6.32;;;1.63;;
6939;SDS011;3509;48.510;9.076;2022-09-09T07:13:25;7.72;;;2.00;;
6939;SDS011;3509;48.510;9.076;2022-09-09T07:15:52;4.95;;;2.00;;
6939;SDS011;3509;48.510;9.076;2022-09-09T07:18:18;4.40;;;1.95;;
6939;SDS011;3509;48.510;9.076;2022-09-09T07:20:54;7.00;;;1.90;;
6939;SDS011;3509;48.510;9.076;2022-09-09T07:23:21;4.60;;;1.80;;
6939;SDS011;3509;48.510;9.076;2022-09-09T07:25:47;14.27;;;3.50;;
6939;SDS011;3509;48.510;9.076;2022-09-09T07:28:13;8.45;;;2.00;;
6939;SDS011;3509;48.510;9.076;2022-09-09T07:30:39;4.28;;;2.03;;
6939;SDS011;3509;48.510;9.076;2022-09-09T07:33:05;3.58;;;1.88;;
6939;SDS011;3509;48.510;9.076;2022-09-09T07:35:32;3.53;;;1.60;;
6939;SDS011;3509;48.510;9.076;2022-09-09T07:37:57;5.43;;;2.00;;
6939;SDS011;3509;48.510;9.076;2022-09-09T07:40:25;4.78;;;1.67;;
6939;SDS011;3509;48.510;9.076;2022-09-09T07:42:51;5.40;;;1.90;;
6939;SDS011;3509;48.510;9.076;2022-09-09T07:45:16;7.53;;;2.38;;
6939;SDS011;3509;48.510;9.076;2022-09-09T07:47:42;6.30;;;2.00;;
6939;SDS011;3509;48.510;9.076;2022-09-09T07:50:09;7.38;;;2.05;;
6939;SDS011;3509;48.510;9.076;2022-09-09T07:52:35;10.10;;;2.00;;
6939;SDS011;3509;48.510;9.076;2022-09-09T07:55:04;5.57;;;2.05;;
6939;SDS011;3509;48.510;9.076;2022-09-09T07:57:31;8.27;;;2.20;;
6939;SDS011;3509;48.510;9.076;2022-09-09T07:59:57;12.95;;;2.30;;
6939;SDS011;3509;48.510;9.076;2022-09-09T08:02:23;6.15;;;2.10;;
6939;SDS011;3509;48.510;9.076;2022-09-09T08:04:50;7.25;;;2.22;;
6939;SDS011;3509;48.510;9.076;2022-09-09T08:07:17;5.82;;;2.35;;
6939;SDS011;3509;48.510;9.076;2022-09-09T08:09:42;8.93;;;2.78;;
6939;SDS011;3509;48.510;9.076;2022-09-09T08:12:08;5.40;;;1.73;;
6939;SDS011;3509;48.510;9.076;2022-09-09T08:14:35;6.55;;;2.22;;
6939;SDS011;3509;48.510;9.076;2022-09-09T08:17:01;5.40;;;2.72;;
6939;SDS011;3509;48.510;9.076;2022-09-09T08:19:27;7.57;;;2.65;;
6939;SDS011;3509;48.510;9.076;2022-09-09T08:21:55;6.47;;;2.60;;
6939;SDS011;3509;48.510;9.076;2022-09-09T08:24:20;7.20;;;2.47;;
6939;SDS011;3509;48.510;9.076;2022-09-09T08:26:48;7.97;;;2.22;;
6939;SDS011;3509;48.510;9.076;2022-09-09T08:29:14;9.82;;;2.50;;
6939;SDS011;3509;48.510;9.076;2022-09-09T08:34:17;5.53;;;1.90;;
6939;SDS011;3509;48.510;9.076;2022-09-09T08:36:45;8.75;;;2.42;;
6939;SDS011;3509;48.510;9.076;2022-09-09T08:39:12;6.70;;;2.58;;
6939;SDS011;3509;48.510;9.076;2022-09-09T08:45:11;3.33;;;1.60;;
6939;SDS011;3509;48.510;9.076;2022-09-09T08:48:12;4.20;;;1.98;;
6939;SDS011;3509;48.510;9.076;2022-09-09T08:51:06;3.40;;;1.63;;
6939;SDS011;3509;48.510;9.076;2022-09-09T08:53:37;3.55;;;1.33;;
6939;SDS011;3509;48.510;9.076;2022-09-09T08:56:12;3.70;;;1.70;;
6939;SDS011;3509;48.510;9.076;2022-09-09T08:58:47;4.25;;;1.80;;
6939;SDS011;3509;48.510;9.076;2022-09-09T09:01:17;3.95;;;1.50;;
6939;SDS011;3509;48.510;9.076;2022-09-09T09:12:06;6.13;;;1.67;;
6939;SDS011;3509;48.510;9.076;2022-09-09T09:14:40;3.15;;;1.58;;
6939;SDS011;3509;48.510;9.076;2022-09-09T09:17:10;3.08;;;1.30;;
6939;SDS011;3509;48.510;9.076;2022-09-09T09:19:42;1.63;;;1.40;;
6939;SDS011;3509;48.510;9.076;2022-09-09T09:27:59;3.53;;;1.50;;
6939;SDS011;3509;48.510;9.076;2022-09-09T09:30:28;4.00;;;1.73;;
6939;SDS011;3509;48.510;9.076;2022-09-09T09:33:00;4.28;;;1.55;;
6939;SDS011;3509;48.510;9.076;2022-09-09T09:35:29;3.42;;;1.50;;
6939;SDS011;3509;48.510;9.076;2022-09-09T09:37:55;2.97;;;1.42;;
6939;SDS011;3509;48.510;9.076;2022-09-09T09:40:21;3.55;;;1.50;;
6939;SDS011;3509;48.510;9.076;2022-09-09T09:42:52;3.15;;;1.40;;
6939;SDS011;3509;48.510;9.076;2022-09-09T09:48:10;3.38;;;1.80;;
6939;SDS011;3509;48.510;9.076;2022-09-09T09:53:36;5.35;;;1.40;;
6939;SDS011;3509;48.510;9.076;2022-09-09T09:56:04;3.33;;;1.33;;
6939;SDS011;3509;48.510;9.076;2022-09-09T09:58:33;3.70;;;1.38;;
6939;SDS011;3509;48.510;9.076;2022-09-09T10:01:18;3.40;;;1.40;;
6939;SDS011;3509;48.510;9.076;2022-09-09T10:03:58;2.35;;;1.40;;
6939;SDS011;3509;48.510;9.076;2022-09-09T10:06:45;2.83;;;1.52;;
6939;SDS011;3509;48.510;9.076;2022-09-09T10:09:22;4.95;;;1.20;;
6939;SDS011;3509;48.510;9.076;2022-09-09T10:17:33;3.95;;;1.80;;
6939;SDS011;3509;48.510;9.076;2022-09-09T10:20:10;4.30;;;1.80;;
6939;SDS011;3509;48.510;9.076;2022-09-09T10:22:50;6.10;;;1.98;;
6939;SDS011;3509;48.510;9.076;2022-09-09T10:28:18;15.95;;;2.80;;
6939;SDS011;3509;48.510;9.076;2022-09-09T10:36:31;3.92;;;1.45;;
6939;SDS011;3509;48.510;9.076;2022-09-09T10:41:35;4.32;;;1.58;;
6939;SDS011;3509;48.510;9.076;2022-09-09T10:55:19;21.85;;;2.53;;
6939;SDS011;3509;48.510;9.076;2022-09-09T10:57:51;2.80;;;1.33;;
6939;SDS011;3509;48.510;9.076;2022-09-09T11:00:26;3.72;;;1.40;;
6939;SDS011;3509;48.510;9.076;2022-09-09T11:03:09;4.15;;;1.60;;
6939;SDS011;3509;48.510;9.076;2022-09-09T11:06:06;4.90;;;1.80;;
6939;SDS011;3509;48.510;9.076;2022-09-09T11:08:32;3.83;;;1.73;;
6939;SDS011;3509;48.510;9.076;2022-09-09T11:16:11;4.22;;;1.33;;
6939;SDS011;3509;48.510;9.076;2022-09-09T11:18:50;12.88;;;1.90;;
6939;SDS011;3509;48.510;9.076;2022-09-09T11:21:25;8.07;;;1.60;;
6939;SDS011;3509;48.510;9.076;2022-09-09T11:24:00;7.53;;;1.70;;
6939;SDS011;3509;48.510;9.076;2022-09-09T11:26:36;6.03;;;1.35;;
6939;SDS011;3509;48.510;9.076;2022-09-09T11:29:21;6.07;;;1.27;;
6939;SDS011;3509;48.510;9.076;2022-09-09T11:40:27;5.88;;;1.13;;
6939;SDS011;3509;48.510;9.076;2022-09-09T11:43:09;3.35;;;1.10;;
6939;SDS011;3509;48.510;9.076;2022-09-09T11:45:42;2.10;;;1.10;;
6939;SDS011;3509;48.510;9.076;2022-09-09T11:53:28;3.03;;;1.40;;
6939;SDS011;3509;48.510;9.076;2022-09-09T12:01:44;17.73;;;2.58;;
6939;SDS011;3509;48.510;9.076;2022-09-09T12:07:00;3.38;;;1.52;;
6939;SDS011;3509;48.510;9.076;2022-09-09T12:09:43;2.45;;;1.30;;
6939;SDS011;3509;48.510;9.076;2022-09-09T12:17:23;4.03;;;1.30;;
6939;SDS011;3509;48.510;9.076;2022-09-09T12:28:11;5.03;;;1.48;;
6939;SDS011;3509;48.510;9.076;2022-09-09T12:33:33;3.13;;;1.20;;
6939;SDS011;3509;48.510;9.076;2022-09-09T12:36:00;4.22;;;1.38;;
6939;SDS011;3509;48.510;9.076;2022-09-09T12:38:35;5.72;;;1.27;;
6939;SDS011;3509;48.510;9.076;2022-09-09T12:41:03;4.65;;;1.20;;
6939;SDS011;3509;48.510;9.076;2022-09-09T12:43:29;3.30;;;1.30;;
6939;SDS011;3509;48.510;9.076;2022-09-09T12:45:56;5.13;;;1.30;;
6939;SDS011;3509;48.510;9.076;2022-09-09T12:48:30;4.35;;;1.25;;
6939;SDS011;3509;48.510;9.076;2022-09-09T12:51:02;6.90;;;1.20;;
6939;SDS011;3509;48.510;9.076;2022-09-09T12:53:35;2.72;;;1.35;;
6939;SDS011;3509;48.510;9.076;2022-09-09T12:58:44;5.30;;;1.30;;
6939;SDS011;3509;48.510;9.076;2022-09-09T13:01:18;3.83;;;1.30;;
6939;SDS011;3509;48.510;9.076;2022-09-09T13:04:15;4.43;;;1.40;;
6939;SDS011;3509;48.510;9.076;2022-09-09T13:06:45;4.93;;;1.30;;
6939;SDS011;3509;48.510;9.076;2022-09-09T13:09:11;4.05;;;1.30;;
6939;SDS011;3509;48.510;9.076;2022-09-09T13:11:38;4.57;;;1.20;;
6939;SDS011;3509;48.510;9.076;2022-09-09T13:14:12;3.92;;;1.58;;
6939;SDS011;3509;48.510;9.076;2022-09-09T13:16:59;2.92;;;1.20;;
6939;SDS011;3509;48.510;9.076;2022-09-09T13:19:29;3.08;;;1.23;;
6939;SDS011;3509;48.510;9.076;2022-09-09T13:21:59;4.10;;;1.27;;
6939;SDS011;3509;48.510;9.076;2022-09-09T13:24:28;2.78;;;1.35;;
6939;SDS011;3509;48.510;9.076;2022-09-09T13:26:56;2.97;;;1.50;;
6939;SDS011;3509;48.510;9.076;2022-09-09T13:29:23;5.30;;;1.38;;
6939;SDS011;3509;48.510;9.076;2022-09-09T13:31:49;6.00;;;1.40;;
6939;SDS011;3509;48.510;9.076;2022-09-09T13:34:28;2.88;;;1.48;;
6939;SDS011;3509;48.510;9.076;2022-09-09T13:37:19;4.45;;;1.80;;
6939;SDS011;3509;48.510;9.076;2022-09-09T13:40:06;3.97;;;1.60;;
6939;SDS011;3509;48.510;9.076;2022-09-09T13:42:42;5.25;;;1.52;;
6939;SDS011;3509;48.510;9.076;2022-09-09T13:45:19;3.03;;;1.00;;
6939;SDS011;3509;48.510;9.076;2022-09-09T13:47:47;2.55;;;1.42;;
6939;SDS011;3509;48.510;9.076;2022-09-09T13:50:25;3.58;;;1.15;;
6939;SDS011;3509;48.510;9.076;2022-09-09T13:52:53;1.75;;;0.95;;
6939;SDS011;3509;48.510;9.076;2022-09-09T13:55:21;4.80;;;1.17;;
6939;SDS011;3509;48.510;9.076;2022-09-09T14:00:18;2.92;;;1.35;;
6939;SDS011;3509;48.510;9.076;2022-09-09T14:02:44;3.13;;;1.17;;
6939;SDS011;3509;48.510;9.076;2022-09-09T14:05:10;3.22;;;1.40;;
6939;SDS011;3509;48.510;9.076;2022-09-09T14:07:36;3.17;;;1.30;;
6939;SDS011;3509;48.510;9.076;2022-09-09T14:10:03;2.88;;;1.27;;
6939;SDS011;3509;48.510;9.076;2022-09-09T14:12:29;5.53;;;1.48;;
6939;SDS011;3509;48.510;9.076;2022-09-09T14:14:55;3.33;;;1.17;;
6939;SDS011;3509;48.510;9.076;2022-09-09T14:17:21;4.05;;;1.38;;
6939;SDS011;3509;48.510;9.076;2022-09-09T14:19:47;2.67;;;1.20;;
6939;SDS011;3509;48.510;9.076;2022-09-09T14:22:12;6.00;;;1.30;;
6939;SDS011;3509;48.510;9.076;2022-09-09T14:24:38;3.83;;;1.48;;
6939;SDS011;3509;48.510;9.076;2022-09-09T14:27:04;2.13;;;1.08;;
6939;SDS011;3509;48.510;9.076;2022-09-09T14:29:30;4.03;;;1.50;;
6939;SDS011;3509;48.510;9.076;2022-09-09T14:31:56;5.25;;;1.30;;
6939;SDS011;3509;48.510;9.076;2022-09-09T14:34:21;5.03;;;1.40;;
6939;SDS011;3509;48.510;9.076;2022-09-09T14:36:47;2.40;;;1.30;;
6939;SDS011;3509;48.510;9.076;2022-09-09T14:39:13;4.07;;;1.30;;
6939;SDS011;3509;48.510;9.076;2022-09-09T14:41:38;4.57;;;1.20;;
6939;SDS011;3509;48.510;9.076;2022-09-09T14:44:04;3.13;;;1.15;;
6939;SDS011;3509;48.510;9.076;2022-09-09T14:46:30;4.05;;;1.42;;
6939;SDS011;3509;48.510;9.076;2022-09-09T14:48:56;3.28;;;1.20;;
6939;SDS011;3509;48.510;9.076;2022-09-09T14:51:22;5.85;;;1.40;;
6939;SDS011;3509;48.510;9.076;2022-09-09T14:53:54;6.50;;;1.20;;
6939;SDS011;3509;48.510;9.076;2022-09-09T14:56:23;4.82;;;1.50;;
6939;SDS011;3509;48.510;9.076;2022-09-09T14:58:54;1.52;;;0.93;;
6939;SDS011;3509;48.510;9.076;2022-09-09T15:01:21;4.20;;;1.40;;
6939;SDS011;3509;48.510;9.076;2022-09-09T15:03:48;2.30;;;1.00;;
6939;SDS011;3509;48.510;9.076;2022-09-09T15:06:16;3.88;;;0.85;;
6939;SDS011;3509;48.510;9.076;2022-09-09T15:08:43;4.20;;;1.40;;
6939;SDS011;3509;48.510;9.076;2022-09-09T15:11:10;5.03;;;1.13;;
6939;SDS011;3509;48.510;9.076;2022-09-09T15:13:37;3.55;;;1.10;;
6939;SDS011;3509;48.510;9.076;2022-09-09T15:16:08;3.83;;;1.13;;
6939;SDS011;3509;48.510;9.076;2022-09-09T15:18:35;1.92;;;1.05;;
6939;SDS011;3509;48.510;9.076;2022-09-09T15:21:01;5.35;;;1.30;;
6939;SDS011;3509;48.510;9.076;2022-09-09T15:23:31;3.28;;;1.30;;
6939;SDS011;3509;48.510;9.076;2022-09-09T15:25:57;3.65;;;1.20;;
6939;SDS011;3509;48.510;9.076;2022-09-09T15:28:23;4.00;;;1.30;;
6939;SDS011;3509;48.510;9.076;2022-09-09T15:30:49;4.38;;;1.38;;
6939;SDS011;3509;48.510;9.076;2022-09-09T15:33:17;3.17;;;1.10;;
6939;SDS011;3509;48.510;9.076;2022-09-09T15:35:43;4.50;;;1.40;;
6939;SDS011;3509;48.510;9.076;2022-09-09T15:38:08;3.45;;;1.33;;
6939;SDS011;3509;48.510;9.076;2022-09-09T15:40:34;5.03;;;1.67;;
6939;SDS011;3509;48.510;9.076;2022-09-09T15:43:00;2.90;;;1.20;;
6939;SDS011;3509;48.510;9.076;2022-09-09T15:45:27;2.75;;;1.15;;
6939;SDS011;3509;48.510;9.076;2022-09-09T15:47:52;2.60;;;1.20;;
6939;SDS011;3509;48.510;9.076;2022-09-09T15:50:18;1.63;;;1.00;;
6939;SDS011;3509;48.510;9.076;2022-09-09T15:52:43;3.63;;;1.05;;
6939;SDS011;3509;48.510;9.076;2022-09-09T15:55:09;1.33;;;0.93;;
6939;SDS011;3509;48.510;9.076;2022-09-09T15:57:35;2.85;;;1.00;;
6939;SDS011;3509;48.510;9.076;2022-09-09T16:00:02;2.58;;;1.00;;
6939;SDS011;3509;48.510;9.076;2022-09-09T16:02:29;1.35;;;0.93;;
6939;SDS011;3509;48.510;9.076;2022-09-09T16:04:55;3.50;;;0.90;;
6939;SDS011;3509;48.510;9.076;2022-09-09T16:07:22;1.67;;;0.88;;
6939;SDS011;3509;48.510;9.076;2022-09-09T16:09:48;1.33;;;0.98;;
6939;SDS011;3509;48.510;9.076;2022-09-09T16:12:16;2.92;;;1.10;;
6939;SDS011;3509;48.510;9.076;2022-09-09T16:14:42;1.42;;;0.82;;
6939;SDS011;3509;48.510;9.076;2022-09-09T16:17:08;3.80;;;1.20;;
6939;SDS011;3509;48.510;9.076;2022-09-09T16:19:33;2.83;;;1.30;;
6939;SDS011;3509;48.510;9.076;2022-09-09T16:22:02;3.42;;;1.17;;
6939;SDS011;3509;48.510;9.076;2022-09-09T16:24:31;1.70;;;0.77;;
6939;SDS011;3509;48.510;9.076;2022-09-09T16:26:57;3.47;;;0.90;;
6939;SDS011;3509;48.510;9.076;2022-09-09T16:29:23;2.33;;;1.02;;
6939;SDS011;3509;48.510;9.076;2022-09-09T16:31:52;2.05;;;0.73;;
6939;SDS011;3509;48.510;9.076;2022-09-09T16:34:18;2.30;;;0.90;;
6939;SDS011;3509;48.510;9.076;2022-09-09T16:36:48;2.85;;;1.15;;
6939;SDS011;3509;48.510;9.076;2022-09-09T16:39:15;4.25;;;1.30;;
6939;SDS011;3509;48.510;9.076;2022-09-09T16:41:43;4.18;;;1.10;;
6939;SDS011;3509;48.510;9.076;2022-09-09T16:44:10;1.65;;;0.82;;
6939;SDS011;3509;48.510;9.076;2022-09-09T16:46:38;2.72;;;1.02;;
6939;SDS011;3509;48.510;9.076;2022-09-09T16:49:06;5.97;;;1.10;;
6939;SDS011;3509;48.510;9.076;2022-09-09T16:51:34;2.85;;;1.20;;
6939;SDS011;3509;48.510;9.076;2022-09-09T16:54:03;4.00;;;1.30;;
6939;SDS011;3509;48.510;9.076;2022-09-09T16:56:31;5.38;;;1.42;;
6939;SDS011;3509;48.510;9.076;2022-09-09T16:59:00;3.55;;;1.30;;
6939;SDS011;3509;48.510;9.076;2022-09-09T17:01:28;1.05;;;0.85;;
6939;SDS011;3509;48.510;9.076;2022-09-09T17:03:56;3.45;;;1.13;;
6939;SDS011;3509;48.510;9.076;2022-09-09T17:06:23;2.38;;;1.25;;
6939;SDS011;3509;48.510;9.076;2022-09-09T17:08:59;3.30;;;1.20;;
6939;SDS011;3509;48.510;9.076;2022-09-09T17:11:28;2.15;;;1.30;;
6939;SDS011;3509;48.510;9.076;2022-09-09T17:13:55;5.63;;;1.63;;
6939;SDS011;3509;48.510;9.076;2022-09-09T17:16:23;2.75;;;1.10;;
6939;SDS011;3509;48.510;9.076;2022-09-09T17:18:52;2.78;;;1.13;;
6939;SDS011;3509;48.510;9.076;2022-09-09T17:21:20;3.15;;;1.58;;
6939;SDS011;3509;48.510;9.076;2022-09-09T17:23:47;3.83;;;1.35;;
6939;SDS011;3509;48.510;9.076;2022-09-09T17:26:14;1.92;;;1.38;;
6939;SDS011;3509;48.510;9.076;2022-09-09T17:28:41;5.05;;;1.63;;
6939;SDS011;3509;48.510;9.076;2022-09-09T17:31:09;3.42;;;1.80;;
6939;SDS011;3509;48.510;9.076;2022-09-09T17:33:37;2.15;;;1.25;;
6939;SDS011;3509;48.510;9.076;2022-09-09T17:36:08;3.80;;;1.50;;
6939;SDS011;3509;48.510;9.076;2022-09-09T17:38:37;4.22;;;1.35;;
6939;SDS011;3509;48.510;9.076;2022-09-09T17:43:29;2.97;;;1.15;;
6939;SDS011;3509;48.510;9.076;2022-09-09T17:45:56;2.80;;;1.15;;
6939;SDS011;3509;48.510;9.076;2022-09-09T17:48:35;2.05;;;1.00;;
6939;SDS011;3509;48.510;9.076;2022-09-09T17:51:02;3.83;;;1.23;;
6939;SDS011;3509;48.510;9.076;2022-09-09T17:53:29;4.43;;;1.10;;
6939;SDS011;3509;48.510;9.076;2022-09-09T17:56:01;3.30;;;1.23;;
6939;SDS011;3509;48.510;9.076;2022-09-09T17:58:30;4.22;;;1.40;;
6939;SDS011;3509;48.510;9.076;2022-09-09T18:01:01;1.90;;;1.13;;
6939;SDS011;3509;48.510;9.076;2022-09-09T18:03:32;3.50;;;1.40;;
6939;SDS011;3509;48.510;9.076;2022-09-09T18:06:00;4.10;;;1.30;;
6939;SDS011;3509;48.510;9.076;2022-09-09T18:08:26;3.50;;;1.05;;
6939;SDS011;3509;48.510;9.076;2022-09-09T18:10:53;3.70;;;1.30;;
6939;SDS011;3509;48.510;9.076;2022-09-09T18:13:20;3.35;;;1.40;;